createdAt,value
2023-05-06T00:01:20.349Z,15.10
2023-05-06T00:04:06.121Z,15.10
2023-05-06T00:06:52.843Z,15.00
2023-05-06T00:09:38.092Z,15.00
2023-05-06T00:12:23.896Z,15.00
2023-05-06T00:15:09.791Z,14.90
2023-05-06T00:17:55.724Z,14.90
2023-05-06T00:20:41.942Z,14.80
2023-05-06T00:23:27.424Z,14.80
2023-05-06T00:26:13.206Z,14.80
2023-05-06T00:28:58.555Z,14.80
2023-05-06T00:31:45.396Z,14.70
2023-05-06T00:34:31.348Z,14.70
2023-05-06T00:37:17.008Z,14.70
2023-05-06T00:40:03.558Z,14.70
2023-05-06T00:42:49.154Z,14.80
2023-05-06T00:45:35.137Z,14.70
2023-05-06T00:48:20.785Z,14.70
2023-05-06T00:51:06.267Z,14.80
2023-05-06T00:53:51.649Z,14.80
2023-05-06T00:56:37.409Z,14.80
2023-05-06T00:59:22.968Z,14.80
2023-05-06T01:02:09.484Z,14.70
2023-05-06T01:04:56.178Z,14.60
2023-05-06T01:07:41.636Z,14.60
2023-05-06T01:10:27.145Z,14.60
2023-05-06T01:13:32.009Z,14.60
2023-05-06T01:16:20.053Z,14.50
2023-05-06T01:19:06.289Z,14.40
2023-05-06T01:21:53.831Z,14.40
2023-05-06T01:24:42.741Z,14.30
2023-05-06T01:27:28.509Z,14.40
2023-05-06T01:30:15.106Z,14.30
2023-05-06T01:33:14.859Z,14.30
2023-05-06T01:36:24.036Z,14.30
2023-05-06T01:39:09.955Z,14.70
2023-05-06T01:41:57.403Z,14.10
2023-05-06T01:44:43.837Z,14.20
2023-05-06T01:47:29.865Z,14.20
2023-05-06T01:50:15.705Z,14.00
2023-05-06T01:53:01.760Z,14.00
2023-05-06T01:55:48.177Z,14.00
2023-05-06T01:58:36.107Z,13.90
2023-05-06T02:01:21.455Z,13.90
2023-05-06T02:04:07.404Z,13.80
2023-05-06T02:06:53.130Z,13.80
2023-05-06T02:09:39.326Z,13.90
2023-05-06T02:12:24.921Z,13.80
2023-05-06T02:15:11.149Z,13.80
2023-05-06T02:17:57.290Z,13.70
2023-05-06T02:20:44.380Z,13.70
2023-05-06T02:23:34.486Z,13.70
2023-05-06T02:26:20.018Z,13.70
2023-05-06T02:29:05.968Z,13.60
2023-05-06T02:31:51.395Z,13.50
2023-05-06T02:34:37.024Z,13.60
2023-05-06T02:37:22.944Z,13.60
2023-05-06T02:40:09.065Z,13.70
2023-05-06T02:42:54.434Z,13.60
2023-05-06T02:45:40.202Z,13.60
2023-05-06T02:48:26.101Z,13.60
2023-05-06T02:51:11.809Z,13.50
2023-05-06T02:53:57.384Z,13.70
2023-05-06T02:56:43.359Z,13.60
2023-05-06T02:59:28.539Z,13.60
2023-05-06T03:02:14.245Z,13.60
2023-05-06T03:04:59.927Z,13.50
2023-05-06T03:07:45.567Z,13.50
2023-05-06T03:10:31.440Z,13.60
2023-05-06T03:13:17.756Z,13.50
2023-05-06T03:16:03.269Z,13.30
2023-05-06T03:18:49.424Z,13.20
2023-05-06T03:21:35.672Z,13.20
2023-05-06T03:24:21.874Z,13.10
2023-05-06T03:27:08.084Z,13.10
2023-05-06T03:29:53.836Z,13.20
2023-05-06T03:32:41.704Z,13.30
2023-05-06T03:35:29.897Z,13.30
2023-05-06T03:38:18.114Z,13.30
2023-05-06T03:41:11.233Z,13.30
2023-05-06T03:43:56.947Z,13.20
2023-05-06T03:46:45.759Z,13.10
2023-05-06T03:49:31.577Z,13.10
2023-05-06T03:52:23.955Z,13.10
2023-05-06T03:55:11.750Z,13.20
2023-05-06T03:57:57.875Z,13.10
2023-05-06T04:00:43.768Z,12.90
2023-05-06T04:03:29.466Z,12.80
2023-05-06T04:06:15.486Z,12.70
2023-05-06T04:09:01.252Z,12.90
2023-05-06T04:11:47.513Z,12.80
2023-05-06T04:14:35.323Z,12.90
2023-05-06T04:17:21.128Z,13.00
2023-05-06T04:20:11.515Z,13.00
2023-05-06T04:22:58.010Z,12.90
2023-05-06T04:25:48.688Z,13.00
2023-05-06T04:28:35.496Z,13.00
2023-05-06T04:31:23.544Z,12.90
2023-05-06T04:34:11.257Z,12.90
2023-05-06T04:36:58.270Z,12.50
2023-05-06T04:40:04.532Z,12.80
2023-05-06T04:42:52.445Z,12.80
2023-05-06T04:45:51.075Z,12.80
2023-05-06T04:48:41.617Z,12.90
2023-05-06T04:51:28.904Z,12.80
2023-05-06T04:54:14.600Z,12.90
2023-05-06T04:57:00.986Z,12.90
2023-05-06T04:59:47.531Z,12.80
2023-05-06T05:02:33.850Z,12.80
2023-05-06T05:05:19.666Z,12.90
2023-05-06T05:08:09.436Z,13.00
2023-05-06T05:10:55.751Z,13.00
2023-05-06T05:13:43.517Z,13.00
2023-05-06T05:16:29.736Z,12.90
2023-05-06T05:19:15.653Z,12.80
2023-05-06T05:22:01.352Z,12.90
2023-05-06T05:24:48.905Z,13.00
2023-05-06T05:27:36.502Z,13.00
2023-05-06T05:30:22.316Z,12.90
2023-05-06T05:33:08.229Z,12.90
2023-05-06T05:35:53.911Z,12.90
2023-05-06T05:38:40.288Z,13.00
2023-05-06T05:41:26.899Z,13.10
2023-05-06T05:44:13.432Z,13.20
2023-05-06T05:46:59.546Z,13.20
2023-05-06T05:49:45.150Z,13.40
2023-05-06T05:52:31.638Z,13.40
2023-05-06T05:55:17.629Z,13.40
2023-05-06T05:58:05.157Z,13.50
2023-05-06T06:00:52.251Z,13.50
2023-05-06T06:03:39.094Z,13.60
2023-05-06T06:06:24.504Z,13.60
2023-05-06T06:09:11.302Z,13.70
2023-05-06T06:11:58.250Z,13.80
2023-05-06T06:14:48.230Z,13.80
2023-05-06T06:17:37.050Z,13.90
2023-05-06T06:20:25.423Z,14.00
2023-05-06T06:23:11.993Z,14.00
2023-05-06T06:25:57.484Z,14.20
2023-05-06T06:28:44.746Z,14.30
2023-05-06T06:31:30.733Z,14.40
2023-05-06T06:34:16.249Z,14.40
2023-05-06T06:37:01.701Z,14.40
2023-05-06T06:39:47.228Z,14.40
2023-05-06T06:42:32.928Z,14.40
2023-05-06T06:45:27.264Z,14.50
2023-05-06T06:48:12.881Z,14.50
2023-05-06T06:50:58.493Z,14.60
2023-05-06T06:53:44.254Z,14.60
2023-05-06T06:56:30.068Z,14.60
2023-05-06T06:59:15.811Z,14.90
2023-05-06T07:02:02.088Z,15.10
2023-05-06T07:04:47.710Z,15.20
2023-05-06T07:07:33.551Z,15.30
2023-05-06T07:10:19.400Z,15.40
2023-05-06T07:13:05.460Z,15.50
2023-05-06T07:15:50.989Z,15.50
2023-05-06T07:18:36.584Z,15.60
2023-05-06T07:21:22.217Z,15.60
2023-05-06T07:24:07.862Z,15.60
2023-05-06T07:26:53.223Z,15.60
2023-05-06T07:29:39.016Z,15.70
2023-05-06T07:32:24.531Z,15.80
2023-05-06T07:35:10.273Z,15.90
2023-05-06T07:37:56.129Z,16.00
2023-05-06T07:40:41.729Z,16.10
2023-05-06T07:43:27.339Z,16.10
2023-05-06T07:46:13.040Z,16.10
2023-05-06T07:48:58.713Z,16.20
2023-05-06T07:51:44.372Z,16.30
2023-05-06T07:54:31.633Z,16.30
2023-05-06T07:57:17.473Z,16.40
2023-05-06T08:00:03.334Z,16.40
2023-05-06T08:02:58.288Z,16.30
2023-05-06T08:05:43.912Z,16.40
2023-05-06T08:08:29.761Z,16.40
2023-05-06T08:11:16.134Z,16.50
2023-05-06T08:14:04.545Z,16.50
2023-05-06T08:16:50.466Z,16.50
2023-05-06T08:19:35.960Z,16.60
2023-05-06T08:22:21.399Z,16.60
2023-05-06T08:25:07.388Z,16.70
2023-05-06T08:27:53.109Z,16.70
2023-05-06T08:30:38.878Z,16.80
2023-05-06T08:33:24.386Z,16.80
2023-05-06T08:36:11.198Z,16.80
2023-05-06T08:38:56.969Z,16.80
2023-05-06T08:41:47.119Z,16.80
2023-05-06T08:44:33.554Z,17.00
2023-05-06T08:47:19.919Z,17.00
2023-05-06T08:50:05.867Z,17.10
2023-05-06T08:52:51.369Z,17.10
2023-05-06T08:55:37.005Z,17.30
2023-05-06T08:58:24.154Z,17.30
2023-05-06T09:01:09.541Z,17.40
2023-05-06T09:03:55.968Z,17.50
2023-05-06T09:06:41.893Z,17.50
2023-05-06T09:09:27.162Z,17.70
2023-05-06T09:12:13.718Z,17.70
2023-05-06T09:14:59.100Z,17.80
2023-05-06T09:17:44.874Z,17.90
2023-05-06T09:20:32.930Z,18.00
2023-05-06T09:23:18.571Z,18.00
2023-05-06T09:26:04.336Z,18.10
2023-05-06T09:28:51.143Z,18.10
2023-05-06T09:31:46.268Z,18.20
2023-05-06T09:34:31.584Z,18.40
2023-05-06T09:37:17.445Z,18.50
2023-05-06T09:40:02.919Z,18.60
2023-05-06T09:42:50.724Z,18.70
2023-05-06T09:45:36.740Z,18.70
2023-05-06T09:48:22.247Z,18.80
2023-05-06T09:51:08.313Z,18.90
2023-05-06T09:53:54.465Z,18.90
2023-05-06T09:56:40.123Z,19.00
2023-05-06T09:59:27.548Z,19.10
2023-05-06T10:02:13.465Z,19.10
2023-05-06T10:04:59.539Z,19.10
2023-05-06T10:07:47.620Z,19.10
2023-05-06T10:10:34.155Z,19.20
2023-05-06T10:13:21.162Z,19.20
2023-05-06T10:16:07.976Z,19.30
2023-05-06T10:18:55.339Z,19.30
2023-05-06T10:21:44.795Z,19.20
2023-05-06T10:24:33.690Z,19.30
2023-05-06T10:27:20.886Z,19.30
2023-05-06T10:30:07.409Z,19.40
2023-05-06T10:32:53.688Z,19.50
2023-05-06T10:35:42.540Z,19.50
2023-05-06T10:38:33.717Z,19.60
2023-05-06T10:41:21.281Z,19.60
2023-05-06T10:44:07.105Z,19.60
2023-05-06T10:47:00.505Z,19.60
2023-05-06T10:50:05.953Z,19.70
2023-05-06T10:52:53.106Z,19.70
2023-05-06T10:55:38.876Z,22.50
2023-05-06T10:58:27.758Z,19.80
2023-05-06T11:01:14.350Z,19.80
2023-05-06T11:04:04.571Z,19.80
2023-05-06T11:06:50.987Z,19.80
2023-05-06T11:09:53.880Z,19.80
2023-05-06T11:12:49.642Z,19.90
2023-05-06T11:15:40.063Z,19.90
2023-05-06T11:18:25.601Z,19.90
2023-05-06T11:21:12.869Z,19.90
2023-05-06T11:23:58.612Z,19.90
2023-05-06T11:26:44.371Z,19.90
2023-05-06T11:29:29.867Z,19.90
2023-05-06T11:32:23.239Z,19.90
2023-05-06T11:35:08.834Z,21.60
2023-05-06T11:37:54.519Z,20.00
2023-05-06T11:40:41.436Z,20.00
2023-05-06T11:43:26.941Z,20.00
2023-05-06T11:46:12.598Z,20.00
2023-05-06T11:48:58.308Z,20.10
2023-05-06T11:51:44.025Z,20.10
2023-05-06T11:54:33.751Z,20.10
2023-05-06T11:57:20.097Z,20.20
2023-05-06T12:00:08.826Z,20.30
2023-05-06T12:02:57.374Z,20.40
2023-05-06T12:05:42.688Z,20.50
2023-05-06T12:08:34.949Z,20.60
2023-05-06T12:11:21.189Z,20.70
2023-05-06T12:14:07.791Z,20.70
2023-05-06T12:16:55.488Z,20.80
2023-05-06T12:19:41.773Z,20.90
2023-05-06T12:22:27.160Z,21.10
2023-05-06T12:25:14.003Z,21.10
2023-05-06T12:27:59.515Z,21.10
2023-05-06T12:30:45.650Z,21.20
2023-05-06T12:33:44.275Z,21.30
2023-05-06T12:36:29.575Z,21.30
2023-05-06T12:39:14.965Z,21.40
2023-05-06T12:42:00.657Z,21.40
2023-05-06T12:44:46.254Z,21.40
2023-05-06T12:47:31.833Z,21.40
2023-05-06T12:50:30.743Z,21.50
2023-05-06T12:53:30.746Z,21.60
2023-05-06T12:56:16.030Z,21.70
2023-05-06T12:59:02.180Z,21.80
2023-05-06T13:01:47.557Z,22.00
2023-05-06T13:04:33.163Z,22.10
2023-05-06T13:07:18.973Z,22.20
2023-05-06T13:10:06.115Z,22.30
2023-05-06T13:12:51.826Z,22.50
2023-05-06T13:15:37.672Z,22.60
2023-05-06T13:18:23.209Z,22.70
2023-05-06T13:21:09.485Z,22.90
2023-05-06T13:23:54.840Z,23.00
2023-05-06T13:26:40.666Z,23.10
2023-05-06T13:29:26.486Z,23.20
2023-05-06T13:32:12.404Z,23.30
2023-05-06T13:34:57.840Z,23.30
2023-05-06T13:37:43.587Z,23.20
2023-05-06T13:40:28.956Z,23.10
2023-05-06T13:43:15.731Z,22.90
2023-05-06T13:46:01.281Z,22.80
2023-05-06T13:48:46.876Z,22.60
2023-05-06T13:51:33.566Z,22.50
2023-05-06T13:54:19.434Z,22.40
2023-05-06T13:57:04.746Z,22.50
2023-05-06T13:59:51.194Z,22.50
2023-05-06T14:02:37.548Z,22.50
2023-05-06T14:05:23.339Z,22.60
2023-05-06T14:08:08.913Z,22.70
2023-05-06T14:10:54.783Z,22.70
2023-05-06T14:13:41.087Z,22.80
2023-05-06T14:16:27.098Z,22.90
2023-05-06T14:19:12.870Z,23.00
2023-05-06T14:21:58.324Z,23.10
2023-05-06T14:24:44.908Z,23.20
2023-05-06T14:27:31.145Z,23.20
2023-05-06T14:30:16.668Z,23.10
2023-05-06T14:33:02.396Z,23.00
2023-05-06T14:35:49.724Z,22.90
2023-05-06T14:38:36.696Z,23.00
2023-05-06T14:41:22.198Z,23.00
2023-05-06T14:44:07.945Z,23.00
2023-05-06T14:46:53.860Z,23.00
2023-05-06T14:49:39.826Z,23.00
2023-05-06T14:52:25.158Z,23.10
2023-05-06T14:55:11.821Z,23.10
2023-05-06T14:57:57.489Z,23.20
2023-05-06T15:00:43.164Z,23.30
2023-05-06T15:03:28.848Z,23.50
2023-05-06T15:06:14.303Z,23.70
2023-05-06T15:09:00.489Z,23.80
2023-05-06T15:11:46.276Z,24.00
2023-05-06T15:14:32.836Z,24.10
2023-05-06T15:17:18.852Z,24.20
2023-05-06T15:20:04.553Z,24.40
2023-05-06T15:22:50.506Z,24.40
2023-05-06T15:25:36.864Z,24.50
2023-05-06T15:28:24.395Z,24.30
2023-05-06T15:31:10.567Z,24.10
2023-05-06T15:33:57.710Z,24.00
2023-05-06T15:36:45.534Z,24.00
2023-05-06T15:39:35.015Z,24.00
2023-05-06T15:42:20.791Z,24.00
2023-05-06T15:45:06.813Z,24.00
2023-05-06T15:47:52.282Z,24.00
2023-05-06T15:50:38.413Z,23.80
2023-05-06T15:53:24.590Z,23.60
2023-05-06T15:56:18.177Z,23.40
2023-05-06T15:59:05.938Z,23.20
2023-05-06T16:02:25.649Z,23.10
2023-05-06T16:04:57.080Z,22.90
2023-05-06T16:07:42.682Z,22.80
2023-05-06T16:10:28.304Z,22.70
2023-05-06T16:13:13.980Z,22.70
2023-05-06T16:16:01.383Z,22.70
2023-05-06T16:18:47.329Z,22.70
2023-05-06T16:21:32.956Z,22.70
2023-05-06T16:24:18.334Z,22.70
2023-05-06T16:27:05.623Z,22.70
2023-05-06T16:29:50.987Z,22.60
2023-05-06T16:32:36.702Z,22.60
2023-05-06T16:35:22.345Z,22.60
2023-05-06T16:38:07.741Z,22.50
2023-05-06T16:40:53.543Z,22.50
2023-05-06T16:43:39.095Z,22.40
2023-05-06T16:46:26.213Z,22.40
2023-05-06T16:49:11.836Z,22.30
2023-05-06T16:52:00.489Z,22.20
2023-05-06T16:54:46.007Z,22.20
2023-05-06T16:57:32.374Z,22.10
2023-05-06T17:00:18.269Z,22.10
2023-05-06T17:03:04.360Z,22.00
2023-05-06T17:05:50.028Z,22.00
2023-05-06T17:08:37.051Z,22.00
2023-05-06T17:11:22.638Z,22.00
2023-05-06T17:14:08.300Z,22.00
2023-05-06T17:16:53.745Z,22.00
2023-05-06T17:19:39.400Z,22.00
2023-05-06T17:22:26.383Z,22.00
2023-05-06T17:25:13.215Z,22.00
2023-05-06T17:27:59.007Z,21.90
2023-05-06T17:30:44.415Z,21.90
2023-05-06T17:33:30.634Z,21.90
2023-05-06T17:36:18.283Z,21.90
2023-05-06T17:39:07.715Z,21.90
2023-05-06T17:41:53.257Z,21.90
2023-05-06T17:44:39.874Z,21.90
2023-05-06T17:47:25.482Z,21.90
2023-05-06T17:50:11.022Z,21.80
2023-05-06T17:52:56.422Z,21.80
2023-05-06T17:55:42.139Z,21.80
2023-05-06T17:58:27.712Z,21.80
2023-05-06T18:01:13.862Z,21.80
2023-05-06T18:03:59.538Z,21.80
2023-05-06T18:06:46.370Z,21.80
2023-05-06T18:09:32.481Z,21.80
2023-05-06T18:12:18.689Z,21.80
2023-05-06T18:15:04.855Z,21.70
2023-05-06T18:17:50.753Z,21.70
2023-05-06T18:20:36.478Z,21.70
2023-05-06T18:23:22.095Z,21.70
2023-05-06T18:26:07.754Z,21.70
2023-05-06T18:28:53.333Z,21.70
2023-05-06T18:31:39.035Z,21.70
2023-05-06T18:34:24.780Z,21.70
2023-05-06T18:37:10.477Z,21.60
2023-05-06T18:39:56.453Z,21.70
2023-05-06T18:42:41.917Z,21.60
2023-05-06T18:45:27.777Z,21.60
2023-05-06T18:48:13.299Z,21.60
2023-05-06T18:51:15.179Z,21.60
2023-05-06T18:54:00.579Z,21.60
2023-05-06T18:56:46.855Z,21.60
2023-05-06T18:59:32.232Z,21.60
2023-05-06T19:02:17.722Z,21.60
2023-05-06T19:05:03.439Z,21.60
2023-05-06T19:07:48.759Z,21.60
2023-05-06T19:10:34.440Z,21.60
2023-05-06T19:13:20.036Z,21.60
2023-05-06T19:16:05.701Z,21.60
2023-05-06T19:18:51.049Z,21.60
2023-05-06T19:21:38.607Z,21.50
2023-05-06T19:24:24.644Z,21.50
2023-05-06T19:27:10.562Z,21.50
2023-05-06T19:29:56.581Z,21.50
2023-05-06T19:32:42.146Z,21.50
2023-05-06T19:35:27.478Z,21.50
2023-05-06T19:38:13.196Z,21.50
2023-05-06T19:40:58.678Z,21.50
2023-05-06T19:43:44.427Z,21.50
2023-05-06T19:46:30.037Z,21.50
2023-05-06T19:49:15.601Z,21.50
2023-05-06T19:52:01.385Z,21.50
2023-05-06T19:54:47.058Z,21.50
2023-05-06T19:57:33.914Z,21.50
2023-05-06T20:00:20.402Z,21.50
2023-05-06T20:03:06.183Z,21.50
2023-05-06T20:05:51.527Z,21.40
2023-05-06T20:08:37.050Z,21.40
2023-05-06T20:11:22.842Z,21.40
2023-05-06T20:14:08.395Z,21.40
2023-05-06T20:16:54.234Z,21.40
2023-05-06T20:19:39.605Z,21.40
2023-05-06T20:22:25.587Z,21.40
2023-05-06T20:25:12.317Z,21.40
2023-05-06T20:27:58.324Z,21.30
2023-05-06T20:30:43.931Z,21.30
2023-05-06T20:33:29.718Z,21.30
2023-05-06T20:36:15.902Z,21.30
2023-05-06T20:39:02.340Z,21.20
2023-05-06T20:41:47.818Z,21.20
2023-05-06T20:44:33.114Z,21.20
2023-05-06T20:47:19.670Z,21.20
2023-05-06T20:50:05.691Z,21.10
2023-05-06T20:52:51.906Z,21.10
2023-05-06T20:55:37.557Z,21.10
2023-05-06T20:58:23.188Z,21.10
2023-05-06T21:01:08.902Z,21.00
2023-05-06T21:03:54.592Z,21.00
2023-05-06T21:06:40.117Z,21.00
2023-05-06T21:09:26.961Z,21.00
2023-05-06T21:12:12.783Z,21.00
2023-05-06T21:14:58.453Z,21.00
2023-05-06T21:17:44.215Z,21.00
2023-05-06T21:20:29.729Z,21.00
2023-05-06T21:23:15.911Z,20.90
2023-05-06T21:26:01.951Z,20.90
2023-05-06T21:28:51.786Z,20.90
2023-05-06T21:31:37.187Z,20.90
2023-05-06T21:34:22.622Z,20.90
2023-05-06T21:37:08.211Z,20.80
2023-05-06T21:39:54.150Z,20.80
2023-05-06T21:42:39.589Z,20.90
2023-05-06T21:45:25.169Z,20.80
2023-05-06T21:48:11.012Z,20.80
2023-05-06T21:50:58.556Z,20.60
2023-05-06T21:53:44.869Z,20.20
2023-05-06T21:56:30.657Z,20.00
2023-05-06T21:59:16.257Z,19.70
2023-05-06T22:02:02.604Z,19.60
2023-05-06T22:04:48.031Z,19.40
2023-05-06T22:07:33.624Z,19.30
2023-05-06T22:10:19.395Z,19.20
2023-05-06T22:13:05.475Z,19.20
2023-05-06T22:15:52.112Z,19.10
2023-05-06T22:18:41.222Z,19.00
2023-05-06T22:21:26.992Z,18.90
2023-05-06T22:24:12.354Z,18.90
2023-05-06T22:26:58.198Z,18.80
2023-05-06T22:29:43.785Z,18.70
2023-05-06T22:32:29.561Z,18.60
2023-05-06T22:35:15.855Z,18.60
2023-05-06T22:38:01.631Z,18.50
2023-05-06T22:40:47.233Z,18.40
2023-05-06T22:43:32.620Z,18.30
2023-05-06T22:46:18.551Z,18.20
2023-05-06T22:49:03.820Z,18.20
2023-05-06T22:51:49.496Z,18.10
2023-05-06T22:54:35.268Z,18.10
2023-05-06T22:57:22.888Z,18.10
2023-05-06T23:00:10.743Z,18.00
2023-05-06T23:02:56.346Z,18.00
2023-05-06T23:05:42.014Z,18.00
2023-05-06T23:08:27.302Z,17.90
2023-05-06T23:11:13.061Z,17.90
2023-05-06T23:13:58.682Z,17.80
2023-05-06T23:16:44.406Z,17.80
2023-05-06T23:19:29.947Z,17.80
2023-05-06T23:22:15.587Z,17.70
2023-05-06T23:25:01.269Z,17.70
2023-05-06T23:27:46.778Z,17.60
2023-05-06T23:30:32.553Z,17.60
2023-05-06T23:33:18.015Z,17.60
2023-05-06T23:36:03.896Z,17.60
2023-05-06T23:38:49.252Z,17.50
2023-05-06T23:41:34.848Z,17.50
2023-05-06T23:44:20.578Z,17.40
2023-05-06T23:47:06.153Z,17.40
2023-05-06T23:49:52.337Z,17.30
2023-05-06T23:52:38.470Z,17.30
2023-05-06T23:55:26.198Z,17.30
2023-05-06T23:58:11.709Z,17.20
